Time;durP1;ratioP1;P1;durP2;ratioP2;P2;SDS_P1;SDS_P2;PMS_P1;PMS_P2;Temp;Humidity;BMP_temperature;BMP_pressure;BME280_temperature;BME280_humidity;BME280_pressure;Samples;Min_cycle;Max_cycle;Signal;HPM_P1;HPM_P2
2022/09/28 00:01:05;;;;;;;14.93;2.03;;;;;;;;;;5043385;28;20089;-77
2022/09/28 00:03:31;;;;;;;14.88;2.13;;;;;;;;;;5043172;28;20130;-76
2022/09/28 00:06:04;;;;;;;16.35;2.20;;;;;;;;;;5043364;28;20029;-76
2022/09/28 00:08:29;;;;;;;18.80;2.45;;;;;;;;;;5043380;28;20463;-76
2022/09/28 00:10:56;;;;;;;12.27;1.90;;;;;;;;;;5043318;28;20491;-76
2022/09/28 00:13:22;;;;;;;15.02;2.40;;;;;;;;;;5043167;28;20097;-75
2022/09/28 00:15:58;;;;;;;14.43;2.10;;;;;;;;;;5042965;28;20029;-76
2022/09/28 00:18:23;;;;;;;15.20;2.10;;;;;;;;;;5042892;28;20092;-76
2022/09/28 00:20:59;;;;;;;15.73;2.20;;;;;;;;;;5042983;28;20029;-76
2022/09/28 00:23:24;;;;;;;14.52;2.17;;;;;;;;;;5043047;28;20047;-76
2022/09/28 00:25:49;;;;;;;18.95;2.20;;;;;;;;;;5042319;28;20484;-76
2022/09/28 00:28:15;;;;;;;18.05;2.28;;;;;;;;;;5043081;28;20044;-76
2022/09/28 00:30:40;;;;;;;16.17;2.30;;;;;;;;;;5042806;28;20032;-75
2022/09/28 00:33:05;;;;;;;11.82;1.98;;;;;;;;;;5042579;28;20029;-76
2022/09/28 00:35:31;;;;;;;13.15;2.40;;;;;;;;;;5041644;28;20041;-76
2022/09/28 00:37:56;;;;;;;15.00;2.22;;;;;;;;;;5042652;28;20321;-75
2022/09/28 00:40:22;;;;;;;17.05;2.17;;;;;;;;;;5041074;28;20048;-76
2022/09/28 00:42:47;;;;;;;11.82;2.13;;;;;;;;;;5042807;28;20029;-74
2022/09/28 00:45:12;;;;;;;13.48;2.10;;;;;;;;;;5042635;28;20041;-76
2022/09/28 00:47:57;;;;;;;14.40;2.00;;;;;;;;;;5042499;28;20321;-76
2022/09/28 00:50:32;;;;;;;15.90;2.33;;;;;;;;;;5042544;28;20075;-76
2022/09/28 00:53:11;;;;;;;11.73;1.63;;;;;;;;;;5042693;28;20052;-76
2022/09/28 00:55:54;;;;;;;10.00;1.75;;;;;;;;;;5041325;28;20100;-76
2022/09/28 00:58:28;;;;;;;9.02;1.42;;;;;;;;;;5041949;28;20025;-77
2022/09/28 01:00:55;;;;;;;8.60;1.70;;;;;;;;;;5042386;28;20033;-76
2022/09/28 01:03:21;;;;;;;12.65;1.20;;;;;;;;;;5041354;28;20125;-77
2022/09/28 01:05:49;;;;;;;11.73;1.60;;;;;;;;;;5040953;28;20029;-77
2022/09/28 01:08:16;;;;;;;9.90;1.45;;;;;;;;;;5041576;28;20020;-77
2022/09/28 01:10:42;;;;;;;6.60;1.10;;;;;;;;;;5041326;28;20345;-77
2022/09/28 01:13:09;;;;;;;10.15;1.27;;;;;;;;;;5041241;28;20032;-76
2022/09/28 01:15:42;;;;;;;8.45;1.35;;;;;;;;;;5039863;28;20064;-76
2022/09/28 01:18:07;;;;;;;5.93;1.13;;;;;;;;;;5040692;28;20029;-77
2022/09/28 01:20:50;;;;;;;7.47;1.10;;;;;;;;;;5040304;28;20029;-77
2022/09/28 01:23:36;;;;;;;5.75;1.10;;;;;;;;;;5041106;28;20025;-76
2022/09/28 01:26:33;;;;;;;11.55;1.52;;;;;;;;;;5039582;28;20080;-76
2022/09/28 01:29:16;;;;;;;6.30;1.15;;;;;;;;;;5040242;28;20052;-76
2022/09/28 01:31:47;;;;;;;11.15;1.20;;;;;;;;;;5041768;28;20291;-76
2022/09/28 01:34:19;;;;;;;7.88;1.35;;;;;;;;;;5041844;28;20055;-76
2022/09/28 01:36:47;;;;;;;7.18;1.02;;;;;;;;;;5040884;28;20029;-76
2022/09/28 01:39:25;;;;;;;4.38;0.85;;;;;;;;;;5041813;28;20025;-77
2022/09/28 01:41:53;;;;;;;7.20;0.90;;;;;;;;;;5041510;28;20104;-77
2022/09/28 01:44:21;;;;;;;2.78;0.70;;;;;;;;;;5041646;28;20136;-75
2022/09/28 01:46:49;;;;;;;3.72;0.77;;;;;;;;;;5040906;28;20093;-76
2022/09/28 01:49:37;;;;;;;5.30;0.77;;;;;;;;;;5041802;28;20198;-76
2022/09/28 01:52:12;;;;;;;3.88;0.80;;;;;;;;;;5041663;28;20033;-77
2022/09/28 01:54:45;;;;;;;5.50;0.63;;;;;;;;;;5041654;28;20144;-77
2022/09/28 01:57:17;;;;;;;5.70;0.80;;;;;;;;;;5041431;28;20025;-76
2022/09/28 01:59:51;;;;;;;2.47;0.50;;;;;;;;;;5041645;28;20025;-76
2022/09/28 02:02:21;;;;;;;3.90;0.70;;;;;;;;;;5041153;28;20068;-76
2022/09/28 02:04:54;;;;;;;2.80;0.55;;;;;;;;;;5041340;28;20045;-76
2022/09/28 02:07:24;;;;;;;2.10;0.70;;;;;;;;;;5041228;28;20063;-76
2022/09/28 02:09:58;;;;;;;2.10;0.50;;;;;;;;;;5042402;28;20029;-76
2022/09/28 02:12:32;;;;;;;1.08;0.50;;;;;;;;;;5045482;28;20044;-76
2022/09/28 02:15:11;;;;;;;1.63;0.32;;;;;;;;;;5045366;28;20313;-76
2022/09/28 02:17:37;;;;;;;2.28;0.55;;;;;;;;;;5045140;28;20041;-76
2022/09/28 02:20:03;;;;;;;3.08;0.40;;;;;;;;;;5045033;28;20096;-75
2022/09/28 02:22:36;;;;;;;3.08;0.50;;;;;;;;;;5045325;28;20061;-77
2022/09/28 02:25:12;;;;;;;2.08;0.40;;;;;;;;;;5044095;28;20029;-76
2022/09/28 02:27:49;;;;;;;2.05;0.30;;;;;;;;;;5045226;28;20369;-76
2022/09/28 02:30:16;;;;;;;1.50;0.40;;;;;;;;;;5045282;28;20040;-76
2022/09/28 02:32:46;;;;;;;2.42;0.50;;;;;;;;;;5044552;28;20029;-76
2022/09/28 02:35:15;;;;;;;3.25;0.40;;;;;;;;;;5044356;28;20092;-76
2022/09/28 02:37:41;;;;;;;1.42;0.43;;;;;;;;;;5044469;28;20029;-76
2022/09/28 02:40:18;;;;;;;1.10;0.30;;;;;;;;;;5044689;28;20070;-76
2022/09/28 02:43:11;;;;;;;2.10;0.50;;;;;;;;;;5044866;28;20025;-76
2022/09/28 02:45:56;;;;;;;2.70;0.20;;;;;;;;;;5043438;28;20040;-76
2022/09/28 02:48:36;;;;;;;0.90;0.20;;;;;;;;;;5043293;28;20037;-75
2022/09/28 02:51:27;;;;;;;0.80;0.28;;;;;;;;;;5044865;28;20032;-75
2022/09/28 02:54:05;;;;;;;3.75;0.40;;;;;;;;;;5044639;28;20052;-75
2022/09/28 02:56:53;;;;;;;0.55;0.28;;;;;;;;;;5044574;28;20030;-75
2022/09/28 03:00:10;;;;;;;1.52;0.40;;;;;;;;;;5044870;28;20025;-75
2022/09/28 03:02:41;;;;;;;2.13;0.30;;;;;;;;;;5027258;28;20083;-75
2022/09/28 03:05:18;;;;;;;1.67;0.40;;;;;;;;;;5044339;28;20048;-76
2022/09/28 03:08:13;;;;;;;0.60;0.20;;;;;;;;;;5044385;28;20028;-75
2022/09/28 03:10:48;;;;;;;1.77;0.22;;;;;;;;;;5028046;28;20041;-76
2022/09/28 03:13:15;;;;;;;2.17;0.30;;;;;;;;;;5043218;28;20033;-76
2022/09/28 03:15:41;;;;;;;3.47;0.60;;;;;;;;;;5044349;28;20030;-76
2022/09/28 03:18:07;;;;;;;1.77;0.60;;;;;;;;;;5044128;28;20043;-75
2022/09/28 03:20:33;;;;;;;3.20;0.60;;;;;;;;;;5044153;28;20084;-76
2022/09/28 03:22:59;;;;;;;2.75;0.93;;;;;;;;;;5044029;28;20340;-75
2022/09/28 03:25:25;;;;;;;6.47;1.70;;;;;;;;;;5044062;28;20052;-77
2022/09/28 03:27:50;;;;;;;8.05;3.00;;;;;;;;;;5043964;28;20028;-75
2022/09/28 03:30:16;;;;;;;8.93;4.75;;;;;;;;;;5044187;28;20025;-76
2022/09/28 03:32:41;;;;;;;11.30;5.82;;;;;;;;;;5043940;28;20061;-75
2022/09/28 03:35:08;;;;;;;13.45;5.97;;;;;;;;;;5043741;28;20336;-75
2022/09/28 03:37:34;;;;;;;8.43;4.28;;;;;;;;;;5043794;28;20087;-75
2022/09/28 03:39:59;;;;;;;5.53;3.15;;;;;;;;;;5043783;28;20029;-75
2022/09/28 03:42:25;;;;;;;3.40;1.35;;;;;;;;;;5043231;28;20060;-76
2022/09/28 03:44:50;;;;;;;3.10;1.00;;;;;;;;;;5042826;28;20097;-76
2022/09/28 03:47:16;;;;;;;2.20;0.47;;;;;;;;;;5042476;28;20208;-76
2022/09/28 03:49:42;;;;;;;1.50;0.38;;;;;;;;;;5043419;28;20021;-76
2022/09/28 03:52:08;;;;;;;0.82;0.30;;;;;;;;;;5043458;28;20272;-76
2022/09/28 03:54:33;;;;;;;0.80;0.20;;;;;;;;;;5043573;28;20029;-77
2022/09/28 03:56:59;;;;;;;0.47;0.22;;;;;;;;;;5043544;28;20325;-76
2022/09/28 03:59:24;;;;;;;1.90;0.20;;;;;;;;;;5043449;28;20044;-77
2022/09/28 04:01:50;;;;;;;0.75;0.43;;;;;;;;;;5043258;28;20029;-77
2022/09/28 04:04:16;;;;;;;0.22;0.10;;;;;;;;;;5043222;28;20053;-77
2022/09/28 04:06:42;;;;;;;1.17;0.15;;;;;;;;;;5043096;28;20041;-77
2022/09/28 04:09:08;;;;;;;1.20;0.30;;;;;;;;;;5042772;28;20340;-77
2022/09/28 04:11:33;;;;;;;1.40;0.10;;;;;;;;;;5043442;28;20044;-76
2022/09/28 04:13:59;;;;;;;1.08;0.10;;;;;;;;;;5041991;28;20037;-77
2022/09/28 04:16:25;;;;;;;0.77;0.20;;;;;;;;;;5043056;28;20041;-77
2022/09/28 04:18:50;;;;;;;0.30;0.13;;;;;;;;;;5043044;28;20029;-78
2022/09/28 04:21:18;;;;;;;1.27;0.22;;;;;;;;;;5042986;28;20028;-78
2022/09/28 04:23:44;;;;;;;0.63;0.20;;;;;;;;;;5043420;28;20033;-77
2022/09/28 04:26:24;;;;;;;1.80;0.30;;;;;;;;;;5043125;28;20136;-77
2022/09/28 04:31:46;;;;;;;0.45;0.10;;;;;;;;;;5042653;28;20032;-77
2022/09/28 04:34:17;;;;;;;0.63;0.08;;;;;;;;;;5042235;28;20040;-77
2022/09/28 04:36:43;;;;;;;0.75;0.20;;;;;;;;;;5042769;28;20018;-77
2022/09/28 04:39:13;;;;;;;1.05;0.30;;;;;;;;;;5042798;28;20312;-77
2022/09/28 04:41:39;;;;;;;2.67;0.30;;;;;;;;;;5042881;28;20031;-77
2022/09/28 04:44:05;;;;;;;1.08;0.40;;;;;;;;;;5042808;28;20053;-76
2022/09/28 04:46:30;;;;;;;0.77;0.30;;;;;;;;;;5042357;28;20029;-77
2022/09/28 04:48:56;;;;;;;2.65;0.30;;;;;;;;;;5042481;28;20029;-76
2022/09/28 04:51:21;;;;;;;1.10;0.25;;;;;;;;;;5042266;28;20079;-77
2022/09/28 04:53:47;;;;;;;2.88;0.30;;;;;;;;;;5041532;28;20029;-76
2022/09/28 04:56:17;;;;;;;0.40;0.20;;;;;;;;;;5042470;28;20029;-76
2022/09/28 04:58:42;;;;;;;0.17;0.10;;;;;;;;;;5041746;28;20033;-77
2022/09/28 05:01:10;;;;;;;0.88;0.22;;;;;;;;;;5042307;28;20026;-77
2022/09/28 05:03:37;;;;;;;0.70;0.20;;;;;;;;;;5041987;28;20056;-77
2022/09/28 05:06:03;;;;;;;0.57;0.20;;;;;;;;;;5042021;28;20059;-77
2022/09/28 05:08:28;;;;;;;1.95;0.20;;;;;;;;;;5041736;28;20265;-77
2022/09/28 05:11:02;;;;;;;1.13;0.40;;;;;;;;;;5041468;28;20029;-77
2022/09/28 05:13:29;;;;;;;0.60;0.30;;;;;;;;;;5041914;28;20060;-78
2022/09/28 05:15:56;;;;;;;1.13;0.17;;;;;;;;;;5041966;28;20021;-78
2022/09/28 05:18:21;;;;;;;0.50;0.20;;;;;;;;;;5041963;28;20021;-76
2022/09/28 05:20:47;;;;;;;0.32;0.25;;;;;;;;;;5042073;28;20087;-77
2022/09/28 05:23:14;;;;;;;0.50;0.40;;;;;;;;;;5041921;28;20029;-77
2022/09/28 05:25:40;;;;;;;0.35;0.20;;;;;;;;;;5041534;28;20013;-77
2022/09/28 05:28:06;;;;;;;0.38;0.20;;;;;;;;;;5041614;28;20372;-77
2022/09/28 05:30:35;;;;;;;0.75;0.13;;;;;;;;;;5040146;28;20017;-77
2022/09/28 05:33:01;;;;;;;1.17;0.20;;;;;;;;;;5041548;28;20031;-76
2022/09/28 05:35:28;;;;;;;1.17;0.30;;;;;;;;;;5041255;28;20075;-77
2022/09/28 05:37:54;;;;;;;1.50;0.30;;;;;;;;;;5041138;28;20029;-77
2022/09/28 05:40:19;;;;;;;2.28;0.25;;;;;;;;;;5040492;28;20117;-76
2022/09/28 05:42:45;;;;;;;1.85;0.50;;;;;;;;;;5041725;28;20260;-77
2022/09/28 05:45:10;;;;;;;1.80;0.57;;;;;;;;;;5041502;28;20092;-76
2022/09/28 05:47:39;;;;;;;1.55;0.40;;;;;;;;;;5041047;28;20024;-76
2022/09/28 05:50:07;;;;;;;4.25;0.88;;;;;;;;;;5041601;28;20321;-75
2022/09/28 05:52:32;;;;;;;1.00;0.38;;;;;;;;;;5041805;28;20041;-77
2022/09/28 05:54:58;;;;;;;1.73;0.50;;;;;;;;;;5041656;28;20099;-77
2022/09/28 05:57:23;;;;;;;1.73;0.60;;;;;;;;;;5041003;28;20029;-77
2022/09/28 05:59:49;;;;;;;1.88;0.40;;;;;;;;;;5041221;28;20033;-77
2022/09/28 06:02:14;;;;;;;4.28;0.40;;;;;;;;;;5041265;28;20112;-77
2022/09/28 06:04:39;;;;;;;2.25;0.50;;;;;;;;;;5041300;28;20044;-77
2022/09/28 06:07:05;;;;;;;1.88;0.50;;;;;;;;;;5041520;28;20091;-76
2022/09/28 06:09:30;;;;;;;2.38;0.50;;;;;;;;;;5041376;28;20029;-77
2022/09/28 06:11:58;;;;;;;1.05;0.30;;;;;;;;;;5041550;28;20021;-76
2022/09/28 06:14:24;;;;;;;3.45;0.40;;;;;;;;;;5041295;28;20029;-78
2022/09/28 06:16:50;;;;;;;1.25;0.50;;;;;;;;;;5040623;28;20029;-75
2022/09/28 06:19:15;;;;;;;2.03;0.70;;;;;;;;;;5040449;28;20087;-75
2022/09/28 06:21:41;;;;;;;2.60;0.50;;;;;;;;;;5037747;28;20084;-72
2022/09/28 06:24:06;;;;;;;0.75;0.30;;;;;;;;;;5035119;28;20033;-75
2022/09/28 06:26:32;;;;;;;1.13;0.38;;;;;;;;;;5037730;28;20021;-77
2022/09/28 06:28:59;;;;;;;1.90;0.47;;;;;;;;;;5038604;28;20017;-72
2022/09/28 06:31:25;;;;;;;3.15;0.60;;;;;;;;;;5040067;28;20104;-73
2022/09/28 06:33:51;;;;;;;1.30;0.50;;;;;;;;;;5047426;28;20068;-75
2022/09/28 06:36:18;;;;;;;2.65;0.50;;;;;;;;;;5049128;28;20056;-75
2022/09/28 06:38:44;;;;;;;2.15;0.70;;;;;;;;;;5060797;28;20523;-76
2022/09/28 06:41:10;;;;;;;2.05;0.70;;;;;;;;;;5043681;28;20021;-77
2022/09/28 06:43:38;;;;;;;2.90;0.50;;;;;;;;;;5034808;28;20013;-77
2022/09/28 06:46:05;;;;;;;1.83;0.70;;;;;;;;;;5034297;28;20096;-76
2022/09/28 06:48:32;;;;;;;3.25;0.75;;;;;;;;;;5042102;28;20020;-74
2022/09/28 06:50:58;;;;;;;3.03;0.63;;;;;;;;;;5055837;28;20037;-75
2022/09/28 06:53:23;;;;;;;2.72;0.70;;;;;;;;;;5052568;28;20048;-74
2022/09/28 06:55:49;;;;;;;4.97;0.90;;;;;;;;;;5050144;28;20107;-74
2022/09/28 06:58:18;;;;;;;3.28;0.65;;;;;;;;;;5053090;28;20423;-76
2022/09/28 07:00:44;;;;;;;5.18;0.90;;;;;;;;;;5054833;28;20035;-74
2022/09/28 07:03:12;;;;;;;3.17;0.70;;;;;;;;;;5054830;28;20033;-74
2022/09/28 07:05:41;;;;;;;3.20;0.77;;;;;;;;;;5048559;28;20029;-75
2022/09/28 07:08:07;;;;;;;3.75;0.77;;;;;;;;;;5033214;28;20029;-74
2022/09/28 07:10:33;;;;;;;3.63;0.80;;;;;;;;;;5032799;28;20045;-74
2022/09/28 07:13:04;;;;;;;3.97;0.80;;;;;;;;;;5036466;28;20044;-75
2022/09/28 07:15:29;;;;;;;3.53;0.82;;;;;;;;;;5043744;28;20030;-75
2022/09/28 07:18:00;;;;;;;2.80;0.73;;;;;;;;;;5044132;28;20055;-75
2022/09/28 07:20:26;;;;;;;4.25;0.90;;;;;;;;;;5034221;28;20152;-75
2022/09/28 07:22:52;;;;;;;2.15;0.68;;;;;;;;;;5039581;28;20436;-75
2022/09/28 07:25:18;;;;;;;3.55;1.02;;;;;;;;;;5038545;28;20063;-77
2022/09/28 07:27:43;;;;;;;2.33;0.65;;;;;;;;;;5034434;28;20025;-73
2022/09/28 07:30:09;;;;;;;1.88;0.60;;;;;;;;;;5030666;28;20038;-74
2022/09/28 07:32:36;;;;;;;2.17;0.80;;;;;;;;;;5031218;28;20044;-74
2022/09/28 07:35:06;;;;;;;2.45;0.68;;;;;;;;;;5039658;28;20044;-74
2022/09/28 07:37:32;;;;;;;;;;;;;;;;;;5035133;28;20067;-76
2022/09/28 07:43:33;;;;;;;6.70;1.02;;;;;;;;;;5052486;28;20043;-77
2022/09/28 07:45:58;;;;;;;3.53;0.60;;;;;;;;;;5051424;28;20021;-79
2022/09/28 07:48:24;;;;;;;2.97;0.70;;;;;;;;;;5045879;28;20040;-78
2022/09/28 07:50:54;;;;;;;3.47;0.80;;;;;;;;;;5042179;28;20540;-81
2022/09/28 07:53:21;;;;;;;4.43;1.00;;;;;;;;;;5027669;28;20028;-76
2022/09/28 07:56:05;;;;;;;6.85;1.10;;;;;;;;;;5027421;28;20029;-73
2022/09/28 07:58:32;;;;;;;4.55;1.00;;;;;;;;;;5027243;28;20028;-77
2022/09/28 08:01:01;;;;;;;2.80;0.90;;;;;;;;;;5027818;28;20046;-73
2022/09/28 08:03:26;;;;;;;4.00;1.00;;;;;;;;;;5027245;28;20033;-77
2022/09/28 08:05:57;;;;;;;2.05;0.80;;;;;;;;;;5036637;28;20028;-76
2022/09/28 08:08:22;;;;;;;2.25;0.77;;;;;;;;;;5035694;28;20405;-79
2022/09/28 08:10:49;;;;;;;2.55;0.80;;;;;;;;;;5051262;28;20040;-75
2022/09/28 08:13:15;;;;;;;2.45;0.68;;;;;;;;;;5049917;28;20040;-74
2022/09/28 08:15:41;;;;;;;2.30;0.65;;;;;;;;;;5049381;28;20029;-75
2022/09/28 08:18:06;;;;;;;4.13;0.80;;;;;;;;;;5055324;28;20029;-75
2022/09/28 08:23:16;;;;;;;1.60;0.60;;;;;;;;;;5045720;28;20103;-74
2022/09/28 08:25:50;;;;;;;2.72;0.70;;;;;;;;;;5043458;28;20025;-74
2022/09/28 08:28:16;;;;;;;3.75;0.88;;;;;;;;;;5044616;28;20063;-73
2022/09/28 08:30:43;;;;;;;5.55;1.00;;;;;;;;;;5042827;28;20539;-76
2022/09/28 08:33:10;;;;;;;5.22;1.00;;;;;;;;;;5042763;28;20029;-75
2022/09/28 08:35:36;;;;;;;3.47;0.93;;;;;;;;;;5042908;28;20033;-75
2022/09/28 08:38:02;;;;;;;5.53;0.98;;;;;;;;;;5042880;28;20107;-77
2022/09/28 08:40:32;;;;;;;5.70;1.10;;;;;;;;;;5059240;28;20412;-75
2022/09/28 08:43:05;;;;;;;5.53;1.40;;;;;;;;;;5063829;28;20023;-76
2022/09/28 08:45:34;;;;;;;8.73;1.55;;;;;;;;;;5065102;28;20150;-76
2022/09/28 08:51:05;;;;;;;4.95;1.08;;;;;;;;;;5058457;28;20094;-76
2022/09/28 08:53:33;;;;;;;6.97;1.52;;;;;;;;;;5051985;28;20112;-77
2022/09/28 08:56:04;;;;;;;5.55;1.30;;;;;;;;;;5051424;28;20079;-77
2022/09/28 08:58:34;;;;;;;7.53;1.30;;;;;;;;;;5051641;28;20042;-77
2022/09/28 09:01:03;;;;;;;5.45;1.73;;;;;;;;;;5051646;28;20538;-76
2022/09/28 09:03:34;;;;;;;5.88;1.15;;;;;;;;;;5050636;28;20148;-76
2022/09/28 09:06:33;;;;;;;9.48;1.55;;;;;;;;;;5051552;28;20094;-76
2022/09/28 09:09:07;;;;;;;8.30;1.40;;;;;;;;;;5051657;28;20374;-76
2022/09/28 09:12:10;;;;;;;8.23;1.60;;;;;;;;;;5051254;28;20021;-76
2022/09/28 09:14:57;;;;;;;12.52;1.63;;;;;;;;;;5051469;28;20856;-76
2022/09/28 09:18:02;;;;;;;5.13;1.33;;;;;;;;;;5050629;28;20032;-76
2022/09/28 09:20:49;;;;;;;5.88;1.40;;;;;;;;;;5010588;28;20087;-74
2022/09/28 09:23:19;;;;;;;10.40;1.88;;;;;;;;;;5051273;28;20033;-75
2022/09/28 09:25:44;;;;;;;10.80;1.75;;;;;;;;;;5051379;28;20108;-74
2022/09/28 09:28:40;;;;;;;11.38;1.70;;;;;;;;;;5050789;28;20648;-76
2022/09/28 09:31:36;;;;;;;7.63;1.52;;;;;;;;;;5051030;28;20464;-74
2022/09/28 09:34:43;;;;;;;8.20;1.40;;;;;;;;;;5049139;28;20044;-74
2022/09/28 09:37:11;;;;;;;5.38;1.30;;;;;;;;;;5022350;28;20037;-74
2022/09/28 09:39:57;;;;;;;9.63;1.45;;;;;;;;;;5051032;28;20102;-73
2022/09/28 09:42:38;;;;;;;9.38;1.50;;;;;;;;;;5050912;28;20484;-74
2022/09/28 09:45:23;;;;;;;11.70;1.73;;;;;;;;;;5051127;28;20044;-73
2022/09/28 09:48:03;;;;;;;9.23;1.30;;;;;;;;;;5050305;28;20032;-74
2022/09/28 09:50:38;;;;;;;6.07;1.30;;;;;;;;;;5050806;28;20028;-76
2022/09/28 09:53:23;;;;;;;6.03;1.23;;;;;;;;;;5050539;28;20040;-76
2022/09/28 09:55:56;;;;;;;10.73;1.75;;;;;;;;;;5032870;28;20033;-75
2022/09/28 09:58:35;;;;;;;12.65;1.50;;;;;;;;;;5050497;28;20068;-76
2022/09/28 10:01:11;;;;;;;8.13;1.00;;;;;;;;;;5050828;28;20063;-76
2022/09/28 10:03:41;;;;;;;8.20;1.13;;;;;;;;;;5048851;28;20021;-76
2022/09/28 10:06:16;;;;;;;6.68;1.35;;;;;;;;;;5032759;28;20627;-77
2022/09/28 10:08:47;;;;;;;11.75;1.10;;;;;;;;;;5049891;28;20025;-77
2022/09/28 10:11:21;;;;;;;7.20;1.08;;;;;;;;;;5032764;28;20068;-77
2022/09/28 10:13:48;;;;;;;8.07;1.40;;;;;;;;;;5050240;28;20071;-77
2022/09/28 10:16:16;;;;;;;7.70;1.15;;;;;;;;;;5050423;28;20048;-78
2022/09/28 10:18:42;;;;;;;8.27;1.23;;;;;;;;;;5049775;28;20021;-77
2022/09/28 10:21:17;;;;;;;6.55;1.02;;;;;;;;;;5050927;28;20067;-76
2022/09/28 10:23:43;;;;;;;5.85;1.30;;;;;;;;;;5049858;28;20028;-77
2022/09/28 10:26:23;;;;;;;9.43;1.48;;;;;;;;;;5050341;28;20536;-77
2022/09/28 10:28:56;;;;;;;7.50;1.33;;;;;;;;;;5050537;28;20029;-78
2022/09/28 10:31:42;;;;;;;7.38;1.50;;;;;;;;;;5045180;28;20397;-76
2022/09/28 10:34:13;;;;;;;7.97;1.30;;;;;;;;;;5049433;28;20029;-76
2022/09/28 10:36:49;;;;;;;7.43;1.60;;;;;;;;;;5041715;28;20088;-77
2022/09/28 10:39:24;;;;;;;6.63;1.42;;;;;;;;;;5010419;28;20553;-76
2022/09/28 10:41:51;;;;;;;7.88;1.45;;;;;;;;;;5015576;28;20030;-79
2022/09/28 10:44:18;;;;;;;7.82;1.48;;;;;;;;;;5021192;28;20032;-78
2022/09/28 10:46:54;;;;;;;10.32;1.88;;;;;;;;;;5020278;28;20030;-76
2022/09/28 10:49:21;;;;;;;11.70;1.88;;;;;;;;;;5020555;28;20160;-77
2022/09/28 10:51:57;;;;;;;7.20;1.65;;;;;;;;;;5019258;28;20026;-83
2022/09/28 10:54:28;;;;;;;9.68;1.65;;;;;;;;;;5021083;28;20026;-79
2022/09/28 10:56:55;;;;;;;8.23;1.60;;;;;;;;;;5020838;28;20069;-81
2022/09/28 10:59:29;;;;;;;9.65;1.73;;;;;;;;;;5015891;28;20353;-75
2022/09/28 11:02:14;;;;;;;5.05;1.25;;;;;;;;;;5014256;28;20061;-79
2022/09/28 11:04:41;;;;;;;5.00;1.13;;;;;;;;;;5017591;28;20025;-76
2022/09/28 11:07:32;;;;;;;3.75;1.00;;;;;;;;;;5019186;28;20088;-76
2022/09/28 11:09:59;;;;;;;3.47;0.80;;;;;;;;;;5015711;28;20026;-76
2022/09/28 11:12:29;;;;;;;3.88;1.20;;;;;;;;;;5020025;28;20048;-73
2022/09/28 11:15:05;;;;;;;3.22;0.85;;;;;;;;;;5026137;28;20532;-75
2022/09/28 11:17:39;;;;;;;4.32;0.85;;;;;;;;;;5027616;28;20041;-74
2022/09/28 11:20:23;;;;;;;2.17;0.80;;;;;;;;;;5031304;28;20287;-74
2022/09/28 11:22:53;;;;;;;3.03;0.65;;;;;;;;;;5031953;28;20436;-74
2022/09/28 11:25:22;;;;;;;2.75;0.52;;;;;;;;;;5026193;28;20014;-75
2022/09/28 11:27:51;;;;;;;4.60;0.73;;;;;;;;;;5029613;28;20033;-76
2022/09/28 11:30:31;;;;;;;4.25;1.02;;;;;;;;;;5020219;28;20026;-74
2022/09/28 11:33:05;;;;;;;2.78;0.65;;;;;;;;;;5028435;28;20026;-72
2022/09/28 11:36:12;;;;;;;2.65;0.80;;;;;;;;;;5033193;28;20049;-76
2022/09/28 11:38:55;;;;;;;7.22;0.93;;;;;;;;;;4945887;29;20043;-73
2022/09/28 11:41:54;;;;;;;3.72;0.80;;;;;;;;;;5002570;28;20221;-76
2022/09/28 11:44:34;;;;;;;4.03;0.90;;;;;;;;;;5014837;28;20062;-74
2022/09/28 11:47:34;;;;;;;2.95;0.70;;;;;;;;;;4998766;28;20085;-77
2022/09/28 11:50:24;;;;;;;2.40;0.65;;;;;;;;;;5006723;28;20034;-73
2022/09/28 11:53:16;;;;;;;3.15;0.73;;;;;;;;;;5009131;28;20038;-72
2022/09/28 11:56:07;;;;;;;1.30;0.40;;;;;;;;;;5008843;28;20048;-72
2022/09/28 11:58:39;;;;;;;3.17;0.65;;;;;;;;;;5005934;28;20656;-72
2022/09/28 12:01:15;;;;;;;2.55;0.77;;;;;;;;;;5007470;28;20030;-72
2022/09/28 12:04:30;;;;;;;1.92;0.55;;;;;;;;;;5007106;28;20057;-72
2022/09/28 12:07:10;;;;;;;3.95;0.93;;;;;;;;;;4992028;28;20045;-72
2022/09/28 12:10:27;;;;;;;3.28;0.70;;;;;;;;;;5007299;28;20053;-72
2022/09/28 12:13:01;;;;;;;3.97;0.75;;;;;;;;;;4966756;28;20101;-72
2022/09/28 12:15:56;;;;;;;3.97;0.85;;;;;;;;;;5022005;28;20060;-72
2022/09/28 12:18:27;;;;;;;3.88;0.90;;;;;;;;;;5006953;28;20041;-72
2022/09/28 12:21:07;;;;;;;4.47;0.68;;;;;;;;;;5009274;28;20122;-72
2022/09/28 12:23:34;;;;;;;2.97;0.80;;;;;;;;;;5009118;28;20405;-72
2022/09/28 12:26:10;;;;;;;3.30;1.10;;;;;;;;;;5010479;28;20648;-72
2022/09/28 12:28:42;;;;;;;2.08;0.60;;;;;;;;;;5012497;28;20486;-72
2022/09/28 12:31:16;;;;;;;2.67;0.63;;;;;;;;;;5012752;28;20036;-72
2022/09/28 12:33:46;;;;;;;3.60;0.60;;;;;;;;;;5012109;28;20061;-72
2022/09/28 12:36:27;;;;;;;4.18;0.80;;;;;;;;;;5012888;28;20026;-72
2022/09/28 12:39:11;;;;;;;3.05;0.70;;;;;;;;;;5020306;28;20122;-72
2022/09/28 12:41:38;;;;;;;3.25;0.60;;;;;;;;;;5052408;28;20028;-72
2022/09/28 12:44:23;;;;;;;3.53;0.60;;;;;;;;;;5051685;28;20025;-72
2022/09/28 12:47:25;;;;;;;2.00;0.60;;;;;;;;;;5051796;28;20476;-72
2022/09/28 12:49:58;;;;;;;1.60;0.50;;;;;;;;;;5051808;28;20025;-72
2022/09/28 12:52:44;;;;;;;4.68;0.60;;;;;;;;;;5051888;28;20052;-72
2022/09/28 12:55:28;;;;;;;2.50;0.47;;;;;;;;;;5051918;28;20036;-72
2022/09/28 12:58:05;;;;;;;1.27;0.52;;;;;;;;;;5052098;28;20083;-72
2022/09/28 13:00:42;;;;;;;1.02;0.30;;;;;;;;;;5051384;28;20467;-72
2022/09/28 13:03:08;;;;;;;2.05;0.50;;;;;;;;;;5051339;28;20024;-74
2022/09/28 13:06:11;;;;;;;1.65;0.32;;;;;;;;;;5051437;28;20024;-72
2022/09/28 13:09:02;;;;;;;1.02;0.32;;;;;;;;;;5038191;28;20037;-72
2022/09/28 13:11:36;;;;;;;2.38;0.40;;;;;;;;;;5051676;28;20044;-72
2022/09/28 13:14:29;;;;;;;1.25;0.40;;;;;;;;;;5051493;28;20079;-72
2022/09/28 13:17:21;;;;;;;1.45;0.30;;;;;;;;;;5051245;28;20075;-73
2022/09/28 13:20:12;;;;;;;0.40;0.28;;;;;;;;;;4987661;28;20037;-72
2022/09/28 13:22:53;;;;;;;1.23;0.32;;;;;;;;;;5051502;28;20029;-72
2022/09/28 13:25:24;;;;;;;2.90;0.80;;;;;;;;;;5051438;28;20108;-72
2022/09/28 13:27:59;;;;;;;1.42;0.50;;;;;;;;;;5051308;28;20024;-73
2022/09/28 13:30:25;;;;;;;2.33;0.52;;;;;;;;;;5050974;28;20025;-72
2022/09/28 13:32:55;;;;;;;1.13;0.50;;;;;;;;;;5051195;28;20039;-72
2022/09/28 13:35:21;;;;;;;1.70;0.43;;;;;;;;;;5051191;28;20104;-72
2022/09/28 13:37:47;;;;;;;5.00;0.80;;;;;;;;;;5050825;28;20104;-72
2022/09/28 13:40:13;;;;;;;2.20;0.70;;;;;;;;;;5050387;28;20397;-73
2022/09/28 13:42:49;;;;;;;2.58;0.73;;;;;;;;;;5051106;28;20497;-73
2022/09/28 13:45:32;;;;;;;2.45;0.50;;;;;;;;;;5051215;28;20037;-72
2022/09/28 13:48:14;;;;;;;2.45;0.90;;;;;;;;;;5050840;28;20043;-73
2022/09/28 13:51:03;;;;;;;4.20;0.70;;;;;;;;;;5050505;28;20484;-72
2022/09/28 13:53:40;;;;;;;3.00;1.10;;;;;;;;;;5050861;28;20021;-73
2022/09/28 13:56:34;;;;;;;6.40;1.10;;;;;;;;;;5050663;28;20043;-73
2022/09/28 13:59:10;;;;;;;3.92;0.98;;;;;;;;;;5050396;28;20025;-72
2022/09/28 14:01:49;;;;;;;3.38;1.00;;;;;;;;;;5050177;28;20837;-72
2022/09/28 14:04:20;;;;;;;2.88;0.93;;;;;;;;;;5050601;28;20032;-74
2022/09/28 14:07:08;;;;;;;3.40;0.80;;;;;;;;;;5050466;28;20495;-74
2022/09/28 14:09:47;;;;;;;7.78;0.80;;;;;;;;;;5050027;28;20048;-74
2022/09/28 14:12:34;;;;;;;2.97;0.90;;;;;;;;;;5050499;28;20392;-74
2022/09/28 14:15:00;;;;;;;2.92;0.73;;;;;;;;;;5050228;28;20025;-74
2022/09/28 14:17:26;;;;;;;3.13;0.73;;;;;;;;;;5050134;28;20647;-74
2022/09/28 14:19:59;;;;;;;1.80;0.77;;;;;;;;;;5049783;28;20052;-74
2022/09/28 14:23:12;;;;;;;2.65;0.73;;;;;;;;;;5050232;28;20033;-74
2022/09/28 14:25:44;;;;;;;2.70;0.73;;;;;;;;;;5005329;28;20049;-74
2022/09/28 14:28:47;;;;;;;3.70;0.70;;;;;;;;;;5050167;28;20025;-74
2022/09/28 14:31:23;;;;;;;3.97;0.90;;;;;;;;;;5049495;28;20025;-74
2022/09/28 14:34:00;;;;;;;6.30;0.88;;;;;;;;;;5049969;28;20048;-73
2022/09/28 14:42:12;;;;;;;2.53;0.80;;;;;;;;;;5049927;28;20063;-74
2022/09/28 14:45:06;;;;;;;6.65;1.13;;;;;;;;;;5049937;28;20159;-73
2022/09/28 14:48:04;;;;;;;3.40;0.77;;;;;;;;;;5049252;28;20025;-73
2022/09/28 14:50:29;;;;;;;3.78;0.70;;;;;;;;;;5039962;28;20048;-73
2022/09/28 14:53:09;;;;;;;2.95;0.95;;;;;;;;;;5049768;28;20017;-74
2022/09/28 14:55:53;;;;;;;5.00;1.08;;;;;;;;;;5049447;28;20036;-73
2022/09/28 14:58:25;;;;;;;4.47;0.90;;;;;;;;;;5049768;28;20027;-74
2022/09/28 15:00:59;;;;;;;2.10;0.70;;;;;;;;;;5049418;28;20029;-74
2022/09/28 15:03:27;;;;;;;3.38;0.90;;;;;;;;;;5031278;28;20120;-73
2022/09/28 15:05:54;;;;;;;6.70;1.50;;;;;;;;;;5049348;28;20438;-73
2022/09/28 15:08:20;;;;;;;4.32;0.77;;;;;;;;;;5049389;28;20025;-74
2022/09/28 15:10:51;;;;;;;3.08;0.80;;;;;;;;;;5048766;28;20036;-73
2022/09/28 15:13:23;;;;;;;;;;;;;;;;;;5032205;28;20532;-71
2022/09/28 15:15:55;;;;;;;5.38;1.00;;;;;;;;;;5049040;28;19913;-73
2022/09/28 15:18:42;;;;;;;4.35;0.90;;;;;;;;;;5048739;28;20068;-73
2022/09/28 15:21:09;;;;;;;3.85;0.70;;;;;;;;;;5048982;28;20115;-73
2022/09/28 15:23:40;;;;;;;4.05;0.80;;;;;;;;;;5049172;28;20070;-73
2022/09/28 15:26:21;;;;;;;4.93;0.80;;;;;;;;;;5048904;28;20029;-73
2022/09/28 15:28:47;;;;;;;4.38;0.90;;;;;;;;;;5049429;28;20090;-73
2022/09/28 15:31:21;;;;;;;3.22;0.82;;;;;;;;;;5048873;28;20029;-73
2022/09/28 15:36:38;;;;;;;4.57;1.23;;;;;;;;;;5048950;28;20055;-73
2022/09/28 15:39:12;;;;;;;5.45;1.15;;;;;;;;;;5048725;28;20442;-73